TimeCST,TemperatureF,Dew PointF,Humidity,Sea Level PressureIn,VisibilityMPH,Wind Direction,Wind SpeedMPH,Gust SpeedMPH,PrecipitationIn,Events,Conditions,WindDirDegrees,DateUTC
12:10 AM,15.8,6.8,68,29.94,10.0,SSE,16.1,-,N/A,,Overcast,150,2012-01-22 06:10:00
12:54 AM,15.1,8.1,74,30.00,10.0,SE,10.4,-,N/A,,Overcast,140,2012-01-22 06:54:00
1:03 AM,15.8,8.6,73,29.91,10.0,SE,12.7,-,N/A,,Overcast,140,2012-01-22 07:03:00
1:54 AM,17.1,10.0,74,29.96,10.0,SSE,13.8,-,N/A,,Overcast,150,2012-01-22 07:54:00
2:54 AM,18.0,10.9,74,29.94,10.0,SSE,12.7,-,N/A,,Mostly Cloudy,150,2012-01-22 08:54:00
3:54 AM,19.0,10.9,71,29.91,10.0,SE,16.1,20.7,N/A,,Overcast,140,2012-01-22 09:54:00
5:54 AM,18.0,12.0,78,29.86,10.0,ESE,15.0,-,N/A,,Mostly Cloudy,120,2012-01-22 11:54:00
6:54 AM,19.0,12.0,74,29.81,10.0,SE,15.0,-,N/A,,Clear,130,2012-01-22 12:54:00
7:54 AM,19.9,12.9,74,29.81,10.0,SE,12.7,-,N/A,,Mostly Cloudy,130,2012-01-22 13:54:00
8:05 AM,19.4,12.2,74,29.74,10.0,SE,15.0,-,N/A,,Overcast,130,2012-01-22 14:05:00
8:54 AM,19.9,14.0,78,29.82,10.0,SSE,15.0,24.2,N/A,,Overcast,160,2012-01-22 14:54:00
9:46 AM,19.4,15.8,86,29.76,5.0,SSE,13.8,-,N/A,,Overcast,160,2012-01-22 15:46:00
9:54 AM,19.0,15.1,85,29.83,5.0,SSE,16.1,-,N/A,,Overcast,160,2012-01-22 15:54:00
10:54 AM,19.0,15.1,85,29.80,3.0,SE,11.5,20.7,N/A,,Overcast,140,2012-01-22 16:54:00
11:21 AM,19.4,15.8,86,29.71,2.5,SE,11.5,-,N/A,,Overcast,130,2012-01-22 17:21:00
11:30 AM,19.4,15.8,86,29.71,1.8,SSE,12.7,-,N/A,,Overcast,150,2012-01-22 17:30:00
12:54 PM,19.9,17.1,89,29.75,1.2,SE,13.8,-,N/A,,Overcast,130,2012-01-22 18:54:00
1:54 PM,21.0,19.0,92,29.72,1.8,ESE,10.4,-,N/A,,Overcast,120,2012-01-22 19:54:00
2:54 PM,21.9,19.0,89,29.70,1.8,SE,11.5,-,N/A,,Overcast,130,2012-01-22 20:54:00
3:54 PM,23.0,19.9,88,29.69,1.2,SE,11.5,-,N/A,,Overcast,130,2012-01-22 21:54:00
4:54 PM,24.1,21.0,88,29.68,1.8,ESE,8.1,-,N/A,,Overcast,120,2012-01-22 22:54:00
5:03 PM,24.8,21.2,86,29.62,2.0,SE,9.2,-,N/A,,Overcast,130,2012-01-22 23:03:00
5:19 PM,24.8,21.2,86,29.62,1.8,SE,10.4,-,N/A,,Overcast,130,2012-01-22 23:19:00
5:54 PM,24.1,21.9,91,29.68,1.5,SE,6.9,-,N/A,,Overcast,130,2012-01-22 23:54:00
6:54 PM,25.0,23.0,92,29.65,1.8,ESE,8.1,-,N/A,,Overcast,120,2012-01-23 00:54:00
7:54 PM,26.1,24.1,92,29.64,1.5,ESE,6.9,-,N/A,,Overcast,110,2012-01-23 01:54:00
8:54 PM,27.0,25.0,92,29.63,1.5,ESE,8.1,-,N/A,,Overcast,120,2012-01-23 02:54:00
9:54 PM,28.0,26.1,92,29.60,1.5,East,5.8,-,N/A,,Overcast,100,2012-01-23 03:54:00
10:17 PM,28.4,26.6,93,29.51,2.0,ESE,5.8,-,N/A,,Overcast,110,2012-01-23 04:17:00
10:46 PM,28.4,26.6,93,29.49,1.8,East,6.9,-,N/A,,Overcast,80,2012-01-23 04:46:00
10:54 PM,28.0,26.1,92,29.54,1.8,ENE,8.1,-,N/A,,Overcast,70,2012-01-23 04:54:00
11:54 PM,28.0,26.1,92,29.52,1.5,ENE,6.9,-,N/A,,Overcast,60,2012-01-23 05:54:00